sensor_id;sensor_type;location;lat;lon;timestamp;P1;durP1;ratioP1;P2;durP2;ratioP2
34403;SDS011;23116;47.660;9.126;2024-01-30T00:03:06;3.38;;;3.08;;
34403;SDS011;23116;47.660;9.126;2024-01-30T00:05:33;9.07;;;3.72;;
34403;SDS011;23116;47.660;9.126;2024-01-30T00:08:00;3.42;;;3.13;;
34403;SDS011;23116;47.660;9.126;2024-01-30T00:10:28;7.13;;;3.15;;
34403;SDS011;23116;47.660;9.126;2024-01-30T00:12:55;10.48;;;3.33;;
34403;SDS011;23116;47.660;9.126;2024-01-30T00:15:23;4.03;;;2.67;;
34403;SDS011;23116;47.660;9.126;2024-01-30T00:17:50;4.85;;;3.13;;
34403;SDS011;23116;47.660;9.126;2024-01-30T00:20:17;2.85;;;2.65;;
34403;SDS011;23116;47.660;9.126;2024-01-30T00:22:45;3.03;;;2.38;;
34403;SDS011;23116;47.660;9.126;2024-01-30T00:25:12;6.45;;;2.78;;
34403;SDS011;23116;47.660;9.126;2024-01-30T00:27:40;6.43;;;2.70;;
34403;SDS011;23116;47.660;9.126;2024-01-30T00:30:07;4.75;;;2.97;;
34403;SDS011;23116;47.660;9.126;2024-01-30T00:32:35;4.18;;;2.45;;
34403;SDS011;23116;47.660;9.126;2024-01-30T00:35:02;10.57;;;2.97;;
34403;SDS011;23116;47.660;9.126;2024-01-30T00:37:29;9.15;;;3.08;;
34403;SDS011;23116;47.660;9.126;2024-01-30T00:39:57;5.88;;;2.78;;
34403;SDS011;23116;47.660;9.126;2024-01-30T00:42:24;8.35;;;2.97;;
34403;SDS011;23116;47.660;9.126;2024-01-30T00:44:51;8.05;;;2.85;;
34403;SDS011;23116;47.660;9.126;2024-01-30T00:47:18;5.13;;;3.00;;
34403;SDS011;23116;47.660;9.126;2024-01-30T00:49:45;8.77;;;3.00;;
34403;SDS011;23116;47.660;9.126;2024-01-30T00:52:13;4.00;;;2.75;;
34403;SDS011;23116;47.660;9.126;2024-01-30T00:54:40;8.20;;;2.90;;
34403;SDS011;23116;47.660;9.126;2024-01-30T00:57:08;7.18;;;3.25;;
34403;SDS011;23116;47.660;9.126;2024-01-30T00:59:35;3.47;;;2.88;;
34403;SDS011;23116;47.660;9.126;2024-01-30T01:02:02;5.45;;;2.92;;
34403;SDS011;23116;47.660;9.126;2024-01-30T01:04:30;4.80;;;2.40;;
34403;SDS011;23116;47.660;9.126;2024-01-30T01:06:57;5.10;;;2.80;;
34403;SDS011;23116;47.660;9.126;2024-01-30T01:09:24;4.35;;;2.40;;
34403;SDS011;23116;47.660;9.126;2024-01-30T01:11:51;6.18;;;2.90;;
34403;SDS011;23116;47.660;9.126;2024-01-30T01:14:18;10.85;;;2.75;;
34403;SDS011;23116;47.660;9.126;2024-01-30T01:16:45;5.43;;;3.05;;
34403;SDS011;23116;47.660;9.126;2024-01-30T01:19:13;4.97;;;2.63;;
34403;SDS011;23116;47.660;9.126;2024-01-30T01:21:41;2.65;;;2.45;;
34403;SDS011;23116;47.660;9.126;2024-01-30T01:24:08;14.73;;;3.05;;
34403;SDS011;23116;47.660;9.126;2024-01-30T01:26:36;11.15;;;2.97;;
34403;SDS011;23116;47.660;9.126;2024-01-30T01:29:03;2.95;;;2.53;;
34403;SDS011;23116;47.660;9.126;2024-01-30T01:31:37;6.40;;;2.40;;
34403;SDS011;23116;47.660;9.126;2024-01-30T01:34:12;8.82;;;3.13;;
34403;SDS011;23116;47.660;9.126;2024-01-30T01:36:39;5.63;;;2.17;;
34403;SDS011;23116;47.660;9.126;2024-01-30T01:39:06;8.70;;;2.70;;
34403;SDS011;23116;47.660;9.126;2024-01-30T01:41:33;3.75;;;2.35;;
34403;SDS011;23116;47.660;9.126;2024-01-30T01:44:01;4.68;;;2.13;;
34403;SDS011;23116;47.660;9.126;2024-01-30T01:46:29;10.55;;;2.75;;
34403;SDS011;23116;47.660;9.126;2024-01-30T01:48:59;9.30;;;2.75;;
34403;SDS011;23116;47.660;9.126;2024-01-30T01:51:31;7.55;;;3.10;;
34403;SDS011;23116;47.660;9.126;2024-01-30T01:54:04;9.38;;;2.55;;
34403;SDS011;23116;47.660;9.126;2024-01-30T01:56:32;11.13;;;2.83;;
34403;SDS011;23116;47.660;9.126;2024-01-30T01:59:02;6.68;;;3.00;;
34403;SDS011;23116;47.660;9.126;2024-01-30T02:01:33;3.13;;;2.83;;
34403;SDS011;23116;47.660;9.126;2024-01-30T02:06:33;9.20;;;2.83;;
34403;SDS011;23116;47.660;9.126;2024-01-30T02:09:01;2.95;;;2.75;;
34403;SDS011;23116;47.660;9.126;2024-01-30T02:11:29;17.30;;;3.20;;
34403;SDS011;23116;47.660;9.126;2024-01-30T02:13:57;3.30;;;2.90;;
34403;SDS011;23116;47.660;9.126;2024-01-30T02:16:29;12.32;;;3.30;;
34403;SDS011;23116;47.660;9.126;2024-01-30T02:18:57;8.45;;;2.92;;
34403;SDS011;23116;47.660;9.126;2024-01-30T02:21:24;14.23;;;2.70;;
34403;SDS011;23116;47.660;9.126;2024-01-30T02:23:51;13.18;;;2.85;;
34403;SDS011;23116;47.660;9.126;2024-01-30T02:26:19;9.80;;;2.90;;
34403;SDS011;23116;47.660;9.126;2024-01-30T02:28:47;2.95;;;2.67;;
34403;SDS011;23116;47.660;9.126;2024-01-30T02:31:14;4.20;;;2.53;;
34403;SDS011;23116;47.660;9.126;2024-01-30T02:33:41;6.47;;;2.38;;
34403;SDS011;23116;47.660;9.126;2024-01-30T02:36:08;6.45;;;2.67;;
34403;SDS011;23116;47.660;9.126;2024-01-30T02:38:35;9.82;;;2.85;;
34403;SDS011;23116;47.660;9.126;2024-01-30T02:41:02;5.40;;;2.53;;
34403;SDS011;23116;47.660;9.126;2024-01-30T02:43:29;5.85;;;2.92;;
34403;SDS011;23116;47.660;9.126;2024-01-30T02:45:56;2.72;;;2.35;;
34403;SDS011;23116;47.660;9.126;2024-01-30T02:48:25;13.82;;;3.13;;
34403;SDS011;23116;47.660;9.126;2024-01-30T02:50:53;4.38;;;2.50;;
34403;SDS011;23116;47.660;9.126;2024-01-30T02:53:20;3.65;;;2.22;;
34403;SDS011;23116;47.660;9.126;2024-01-30T02:55:47;2.58;;;2.38;;
34403;SDS011;23116;47.660;9.126;2024-01-30T02:58:14;6.53;;;2.72;;
34403;SDS011;23116;47.660;9.126;2024-01-30T03:00:41;6.80;;;2.60;;
34403;SDS011;23116;47.660;9.126;2024-01-30T03:03:08;2.67;;;2.47;;
34403;SDS011;23116;47.660;9.126;2024-01-30T03:05:36;3.25;;;2.55;;
34403;SDS011;23116;47.660;9.126;2024-01-30T03:08:04;3.42;;;2.38;;
34403;SDS011;23116;47.660;9.126;2024-01-30T03:10:31;2.50;;;2.30;;
34403;SDS011;23116;47.660;9.126;2024-01-30T03:12:58;2.90;;;2.70;;
34403;SDS011;23116;47.660;9.126;2024-01-30T03:15:25;7.82;;;2.47;;
34403;SDS011;23116;47.660;9.126;2024-01-30T03:17:53;4.85;;;2.40;;
34403;SDS011;23116;47.660;9.126;2024-01-30T03:20:20;6.93;;;2.28;;
34403;SDS011;23116;47.660;9.126;2024-01-30T03:22:47;2.70;;;1.98;;
34403;SDS011;23116;47.660;9.126;2024-01-30T03:25:14;2.47;;;2.28;;
34403;SDS011;23116;47.660;9.126;2024-01-30T03:27:42;3.60;;;2.42;;
34403;SDS011;23116;47.660;9.126;2024-01-30T03:30:09;6.03;;;2.42;;
34403;SDS011;23116;47.660;9.126;2024-01-30T03:32:37;13.40;;;2.58;;
34403;SDS011;23116;47.660;9.126;2024-01-30T03:35:04;3.95;;;2.50;;
34403;SDS011;23116;47.660;9.126;2024-01-30T03:37:32;2.50;;;2.30;;
34403;SDS011;23116;47.660;9.126;2024-01-30T03:39:59;5.43;;;2.60;;
34403;SDS011;23116;47.660;9.126;2024-01-30T03:42:28;7.32;;;2.45;;
34403;SDS011;23116;47.660;9.126;2024-01-30T03:44:56;2.50;;;2.30;;
34403;SDS011;23116;47.660;9.126;2024-01-30T03:47:23;2.67;;;2.47;;
34403;SDS011;23116;47.660;9.126;2024-01-30T03:49:50;2.90;;;2.60;;
34403;SDS011;23116;47.660;9.126;2024-01-30T03:52:17;2.90;;;2.60;;
34403;SDS011;23116;47.660;9.126;2024-01-30T03:54:45;3.08;;;2.78;;
34403;SDS011;23116;47.660;9.126;2024-01-30T03:57:12;4.20;;;2.85;;
34403;SDS011;23116;47.660;9.126;2024-01-30T03:59:41;3.03;;;2.83;;
34403;SDS011;23116;47.660;9.126;2024-01-30T04:02:09;3.03;;;2.58;;
34403;SDS011;23116;47.660;9.126;2024-01-30T04:04:37;2.97;;;2.70;;
34403;SDS011;23116;47.660;9.126;2024-01-30T04:07:04;2.78;;;2.58;;
34403;SDS011;23116;47.660;9.126;2024-01-30T04:09:31;2.92;;;2.72;;
34403;SDS011;23116;47.660;9.126;2024-01-30T04:11:59;5.45;;;2.83;;
34403;SDS011;23116;47.660;9.126;2024-01-30T04:14:27;3.17;;;2.88;;
34403;SDS011;23116;47.660;9.126;2024-01-30T04:16:55;6.45;;;3.00;;
34403;SDS011;23116;47.660;9.126;2024-01-30T04:19:22;3.60;;;3.00;;
34403;SDS011;23116;47.660;9.126;2024-01-30T04:21:49;3.65;;;3.33;;
34403;SDS011;23116;47.660;9.126;2024-01-30T04:24:16;4.68;;;2.97;;
34403;SDS011;23116;47.660;9.126;2024-01-30T04:26:43;6.68;;;3.20;;
34403;SDS011;23116;47.660;9.126;2024-01-30T04:29:10;6.75;;;3.75;;
34403;SDS011;23116;47.660;9.126;2024-01-30T04:31:38;6.32;;;3.35;;
34403;SDS011;23116;47.660;9.126;2024-01-30T04:34:05;3.35;;;3.05;;
34403;SDS011;23116;47.660;9.126;2024-01-30T04:36:32;7.97;;;3.28;;
34403;SDS011;23116;47.660;9.126;2024-01-30T04:39:00;3.45;;;3.15;;
34403;SDS011;23116;47.660;9.126;2024-01-30T04:41:27;3.33;;;3.03;;
34403;SDS011;23116;47.660;9.126;2024-01-30T04:43:56;3.20;;;2.90;;
34403;SDS011;23116;47.660;9.126;2024-01-30T04:46:23;7.22;;;3.33;;
34403;SDS011;23116;47.660;9.126;2024-01-30T04:48:50;3.38;;;3.08;;
34403;SDS011;23116;47.660;9.126;2024-01-30T04:51:18;3.63;;;3.28;;
34403;SDS011;23116;47.660;9.126;2024-01-30T04:53:45;3.10;;;2.90;;
34403;SDS011;23116;47.660;9.126;2024-01-30T04:56:12;2.97;;;2.78;;
34403;SDS011;23116;47.660;9.126;2024-01-30T04:58:39;2.92;;;2.72;;
34403;SDS011;23116;47.660;9.126;2024-01-30T05:01:06;3.05;;;2.75;;
34403;SDS011;23116;47.660;9.126;2024-01-30T05:03:33;3.13;;;2.88;;
34403;SDS011;23116;47.660;9.126;2024-01-30T05:06:01;4.80;;;2.72;;
34403;SDS011;23116;47.660;9.126;2024-01-30T05:08:28;2.70;;;2.50;;
34403;SDS011;23116;47.660;9.126;2024-01-30T05:10:55;3.45;;;3.15;;
34403;SDS011;23116;47.660;9.126;2024-01-30T05:13:25;3.75;;;3.15;;
34403;SDS011;23116;47.660;9.126;2024-01-30T05:15:53;3.10;;;2.80;;
34403;SDS011;23116;47.660;9.126;2024-01-30T05:18:20;3.40;;;2.85;;
34403;SDS011;23116;47.660;9.126;2024-01-30T05:20:47;6.00;;;2.88;;
34403;SDS011;23116;47.660;9.126;2024-01-30T05:23:16;3.95;;;3.10;;
34403;SDS011;23116;47.660;9.126;2024-01-30T05:25:43;5.72;;;3.10;;
34403;SDS011;23116;47.660;9.126;2024-01-30T05:28:10;3.90;;;2.63;;
34403;SDS011;23116;47.660;9.126;2024-01-30T05:30:37;5.50;;;3.13;;
34403;SDS011;23116;47.660;9.126;2024-01-30T05:33:04;5.80;;;3.17;;
34403;SDS011;23116;47.660;9.126;2024-01-30T05:35:32;4.00;;;2.72;;
34403;SDS011;23116;47.660;9.126;2024-01-30T05:37:59;9.73;;;3.00;;
34403;SDS011;23116;47.660;9.126;2024-01-30T05:40:26;6.05;;;3.25;;
34403;SDS011;23116;47.660;9.126;2024-01-30T05:42:53;12.40;;;3.15;;
34403;SDS011;23116;47.660;9.126;2024-01-30T05:45:21;11.15;;;3.08;;
34403;SDS011;23116;47.660;9.126;2024-01-30T05:47:48;11.30;;;3.20;;
34403;SDS011;23116;47.660;9.126;2024-01-30T05:50:15;5.07;;;2.72;;
34403;SDS011;23116;47.660;9.126;2024-01-30T05:52:42;3.40;;;2.47;;
34403;SDS011;23116;47.660;9.126;2024-01-30T05:55:09;17.20;;;2.63;;
34403;SDS011;23116;47.660;9.126;2024-01-30T05:57:37;8.00;;;2.47;;
34403;SDS011;23116;47.660;9.126;2024-01-30T06:00:05;12.75;;;2.60;;
34403;SDS011;23116;47.660;9.126;2024-01-30T06:02:33;9.15;;;3.13;;
34403;SDS011;23116;47.660;9.126;2024-01-30T06:05:01;15.88;;;2.83;;
34403;SDS011;23116;47.660;9.126;2024-01-30T06:07:28;8.57;;;2.88;;
34403;SDS011;23116;47.660;9.126;2024-01-30T06:09:56;7.50;;;2.50;;
34403;SDS011;23116;47.660;9.126;2024-01-30T06:12:25;26.65;;;2.80;;
34403;SDS011;23116;47.660;9.126;2024-01-30T06:14:53;16.48;;;2.55;;
34403;SDS011;23116;47.660;9.126;2024-01-30T06:17:22;24.48;;;2.40;;
34403;SDS011;23116;47.660;9.126;2024-01-30T06:19:49;10.98;;;2.60;;
34403;SDS011;23116;47.660;9.126;2024-01-30T06:22:16;13.88;;;2.45;;
34403;SDS011;23116;47.660;9.126;2024-01-30T06:24:43;9.07;;;2.25;;
34403;SDS011;23116;47.660;9.126;2024-01-30T06:27:13;7.35;;;1.83;;
34403;SDS011;23116;47.660;9.126;2024-01-30T06:29:40;16.92;;;2.60;;
34403;SDS011;23116;47.660;9.126;2024-01-30T06:32:13;23.05;;;2.53;;
34403;SDS011;23116;47.660;9.126;2024-01-30T06:34:41;15.13;;;2.25;;
34403;SDS011;23116;47.660;9.126;2024-01-30T06:37:09;12.70;;;2.40;;
34403;SDS011;23116;47.660;9.126;2024-01-30T06:39:37;8.65;;;2.20;;
34403;SDS011;23116;47.660;9.126;2024-01-30T06:42:05;22.73;;;2.30;;
34403;SDS011;23116;47.660;9.126;2024-01-30T06:44:32;3.85;;;2.00;;
34403;SDS011;23116;47.660;9.126;2024-01-30T06:46:59;24.98;;;2.35;;
34403;SDS011;23116;47.660;9.126;2024-01-30T06:49:26;13.80;;;2.50;;
34403;SDS011;23116;47.660;9.126;2024-01-30T06:51:53;15.25;;;2.38;;
34403;SDS011;23116;47.660;9.126;2024-01-30T06:54:21;16.40;;;2.67;;
34403;SDS011;23116;47.660;9.126;2024-01-30T06:56:48;8.85;;;2.17;;
34403;SDS011;23116;47.660;9.126;2024-01-30T06:59:15;9.90;;;2.38;;
34403;SDS011;23116;47.660;9.126;2024-01-30T07:01:42;7.72;;;2.10;;
34403;SDS011;23116;47.660;9.126;2024-01-30T07:04:10;9.55;;;2.03;;
34403;SDS011;23116;47.660;9.126;2024-01-30T07:06:37;5.10;;;2.10;;
34403;SDS011;23116;47.660;9.126;2024-01-30T07:09:05;4.85;;;2.38;;
34403;SDS011;23116;47.660;9.126;2024-01-30T07:11:32;7.78;;;2.28;;
34403;SDS011;23116;47.660;9.126;2024-01-30T07:13:59;5.22;;;2.35;;
34403;SDS011;23116;47.660;9.126;2024-01-30T07:16:29;4.43;;;2.38;;
34403;SDS011;23116;47.660;9.126;2024-01-30T07:18:57;4.25;;;2.42;;
34403;SDS011;23116;47.660;9.126;2024-01-30T07:21:24;8.77;;;2.40;;
34403;SDS011;23116;47.660;9.126;2024-01-30T07:23:56;8.68;;;2.60;;
34403;SDS011;23116;47.660;9.126;2024-01-30T07:26:23;11.40;;;2.63;;
34403;SDS011;23116;47.660;9.126;2024-01-30T07:28:50;6.72;;;2.40;;
34403;SDS011;23116;47.660;9.126;2024-01-30T07:31:17;2.40;;;2.20;;
34403;SDS011;23116;47.660;9.126;2024-01-30T07:33:45;11.40;;;2.55;;
34403;SDS011;23116;47.660;9.126;2024-01-30T07:36:13;18.15;;;2.80;;
34403;SDS011;23116;47.660;9.126;2024-01-30T07:38:40;11.02;;;2.70;;
34403;SDS011;23116;47.660;9.126;2024-01-30T07:41:07;7.38;;;2.40;;
34403;SDS011;23116;47.660;9.126;2024-01-30T07:43:34;17.90;;;2.75;;
34403;SDS011;23116;47.660;9.126;2024-01-30T07:46:03;2.65;;;2.42;;
34403;SDS011;23116;47.660;9.126;2024-01-30T07:48:32;3.92;;;2.30;;
34403;SDS011;23116;47.660;9.126;2024-01-30T07:50:59;6.03;;;2.53;;
34403;SDS011;23116;47.660;9.126;2024-01-30T07:53:29;4.28;;;2.20;;
34403;SDS011;23116;47.660;9.126;2024-01-30T07:55:56;3.35;;;2.08;;
34403;SDS011;23116;47.660;9.126;2024-01-30T07:58:23;6.38;;;2.05;;
34403;SDS011;23116;47.660;9.126;2024-01-30T08:00:52;2.67;;;2.47;;
34403;SDS011;23116;47.660;9.126;2024-01-30T08:03:21;5.10;;;2.47;;
34403;SDS011;23116;47.660;9.126;2024-01-30T08:05:49;4.47;;;2.25;;
34403;SDS011;23116;47.660;9.126;2024-01-30T08:08:16;2.85;;;2.33;;
34403;SDS011;23116;47.660;9.126;2024-01-30T08:10:43;2.67;;;2.47;;
34403;SDS011;23116;47.660;9.126;2024-01-30T08:13:10;9.52;;;2.50;;
34403;SDS011;23116;47.660;9.126;2024-01-30T08:15:37;4.90;;;2.67;;
34403;SDS011;23116;47.660;9.126;2024-01-30T08:18:05;2.70;;;2.50;;
34403;SDS011;23116;47.660;9.126;2024-01-30T08:20:32;5.88;;;2.60;;
34403;SDS011;23116;47.660;9.126;2024-01-30T08:23:00;3.17;;;2.80;;
34403;SDS011;23116;47.660;9.126;2024-01-30T08:25:27;2.67;;;2.40;;
34403;SDS011;23116;47.660;9.126;2024-01-30T08:27:55;3.17;;;2.88;;
34403;SDS011;23116;47.660;9.126;2024-01-30T08:30:22;3.70;;;3.10;;
34403;SDS011;23116;47.660;9.126;2024-01-30T08:32:49;3.58;;;2.92;;
34403;SDS011;23116;47.660;9.126;2024-01-30T08:35:17;7.45;;;2.40;;
34403;SDS011;23116;47.660;9.126;2024-01-30T08:37:44;4.07;;;2.80;;
34403;SDS011;23116;47.660;9.126;2024-01-30T08:40:11;2.92;;;2.63;;
34403;SDS011;23116;47.660;9.126;2024-01-30T08:42:42;3.20;;;2.75;;
34403;SDS011;23116;47.660;9.126;2024-01-30T08:45:09;7.60;;;2.85;;
34403;SDS011;23116;47.660;9.126;2024-01-30T08:47:40;8.45;;;2.38;;
34403;SDS011;23116;47.660;9.126;2024-01-30T08:50:07;6.15;;;2.60;;
34403;SDS011;23116;47.660;9.126;2024-01-30T08:52:34;3.40;;;2.65;;
34403;SDS011;23116;47.660;9.126;2024-01-30T08:55:01;8.70;;;3.30;;
34403;SDS011;23116;47.660;9.126;2024-01-30T08:57:29;2.50;;;2.30;;
34403;SDS011;23116;47.660;9.126;2024-01-30T08:59:56;4.45;;;3.03;;
34403;SDS011;23116;47.660;9.126;2024-01-30T09:02:24;2.65;;;2.45;;
34403;SDS011;23116;47.660;9.126;2024-01-30T09:04:51;8.02;;;3.13;;
34403;SDS011;23116;47.660;9.126;2024-01-30T09:07:18;12.35;;;3.30;;
34403;SDS011;23116;47.660;9.126;2024-01-30T09:09:45;9.05;;;3.25;;
34403;SDS011;23116;47.660;9.126;2024-01-30T09:12:12;3.28;;;2.97;;
34403;SDS011;23116;47.660;9.126;2024-01-30T09:14:40;7.55;;;2.75;;
34403;SDS011;23116;47.660;9.126;2024-01-30T09:17:07;8.13;;;3.15;;
34403;SDS011;23116;47.660;9.126;2024-01-30T09:19:34;3.92;;;2.85;;
34403;SDS011;23116;47.660;9.126;2024-01-30T09:22:01;6.50;;;3.17;;
34403;SDS011;23116;47.660;9.126;2024-01-30T09:24:29;13.18;;;3.22;;
34403;SDS011;23116;47.660;9.126;2024-01-30T09:26:56;5.43;;;3.03;;
34403;SDS011;23116;47.660;9.126;2024-01-30T09:29:23;5.82;;;3.47;;
34403;SDS011;23116;47.660;9.126;2024-01-30T09:31:50;9.52;;;3.72;;
34403;SDS011;23116;47.660;9.126;2024-01-30T09:34:18;6.15;;;3.30;;
34403;SDS011;23116;47.660;9.126;2024-01-30T09:36:45;3.85;;;3.30;;
34403;SDS011;23116;47.660;9.126;2024-01-30T09:39:12;7.60;;;2.97;;
34403;SDS011;23116;47.660;9.126;2024-01-30T09:41:45;3.13;;;2.83;;
34403;SDS011;23116;47.660;9.126;2024-01-30T09:44:37;3.72;;;3.30;;
34403;SDS011;23116;47.660;9.126;2024-01-30T09:47:07;5.70;;;2.63;;
34403;SDS011;23116;47.660;9.126;2024-01-30T09:49:35;3.50;;;3.15;;
34403;SDS011;23116;47.660;9.126;2024-01-30T09:52:03;5.60;;;3.20;;
34403;SDS011;23116;47.660;9.126;2024-01-30T09:54:32;3.40;;;3.10;;
34403;SDS011;23116;47.660;9.126;2024-01-30T09:57:00;3.10;;;2.80;;
34403;SDS011;23116;47.660;9.126;2024-01-30T09:59:27;7.07;;;3.13;;
34403;SDS011;23116;47.660;9.126;2024-01-30T10:01:54;4.90;;;3.20;;
34403;SDS011;23116;47.660;9.126;2024-01-30T10:04:22;6.30;;;3.60;;
34403;SDS011;23116;47.660;9.126;2024-01-30T10:06:50;4.85;;;3.58;;
34403;SDS011;23116;47.660;9.126;2024-01-30T10:09:18;6.57;;;4.05;;
34403;SDS011;23116;47.660;9.126;2024-01-30T10:11:45;5.15;;;4.45;;
34403;SDS011;23116;47.660;9.126;2024-01-30T10:14:12;6.65;;;4.03;;
34403;SDS011;23116;47.660;9.126;2024-01-30T10:16:39;6.25;;;3.17;;
34403;SDS011;23116;47.660;9.126;2024-01-30T10:19:06;8.75;;;3.55;;
34403;SDS011;23116;47.660;9.126;2024-01-30T10:21:34;3.97;;;3.58;;
34403;SDS011;23116;47.660;9.126;2024-01-30T10:24:01;4.55;;;3.03;;
34403;SDS011;23116;47.660;9.126;2024-01-30T10:26:29;5.45;;;4.10;;
34403;SDS011;23116;47.660;9.126;2024-01-30T10:28:59;5.70;;;4.32;;
34403;SDS011;23116;47.660;9.126;2024-01-30T10:31:31;4.68;;;4.28;;
34403;SDS011;23116;47.660;9.126;2024-01-30T10:33:58;3.70;;;3.35;;
34403;SDS011;23116;47.660;9.126;2024-01-30T10:36:28;4.32;;;3.95;;
34403;SDS011;23116;47.660;9.126;2024-01-30T10:38:59;6.78;;;3.83;;
34403;SDS011;23116;47.660;9.126;2024-01-30T10:41:26;4.15;;;3.80;;
34403;SDS011;23116;47.660;9.126;2024-01-30T10:44:06;4.63;;;4.22;;
34403;SDS011;23116;47.660;9.126;2024-01-30T10:46:37;7.20;;;4.03;;
34403;SDS011;23116;47.660;9.126;2024-01-30T10:49:06;8.77;;;4.35;;
34403;SDS011;23116;47.660;9.126;2024-01-30T10:51:34;4.22;;;3.83;;
34403;SDS011;23116;47.660;9.126;2024-01-30T10:54:02;4.40;;;4.00;;
34403;SDS011;23116;47.660;9.126;2024-01-30T10:56:31;3.75;;;3.45;;
34403;SDS011;23116;47.660;9.126;2024-01-30T10:59:00;3.50;;;3.20;;
34403;SDS011;23116;47.660;9.126;2024-01-30T11:01:28;4.15;;;3.50;;
34403;SDS011;23116;47.660;9.126;2024-01-30T11:03:56;4.47;;;4.07;;
34403;SDS011;23116;47.660;9.126;2024-01-30T11:06:24;7.72;;;4.50;;
34403;SDS011;23116;47.660;9.126;2024-01-30T11:09:02;5.18;;;4.68;;
34403;SDS011;23116;47.660;9.126;2024-01-30T11:11:51;5.15;;;4.65;;
34403;SDS011;23116;47.660;9.126;2024-01-30T11:14:25;4.97;;;4.57;;
34403;SDS011;23116;47.660;9.126;2024-01-30T11:16:56;6.60;;;4.28;;
34403;SDS011;23116;47.660;9.126;2024-01-30T11:19:25;4.22;;;3.83;;
34403;SDS011;23116;47.660;9.126;2024-01-30T11:21:55;6.82;;;4.22;;
34403;SDS011;23116;47.660;9.126;2024-01-30T11:24:23;4.45;;;4.05;;
34403;SDS011;23116;47.660;9.126;2024-01-30T11:26:57;4.13;;;3.72;;
34403;SDS011;23116;47.660;9.126;2024-01-30T11:29:27;4.53;;;4.13;;
34403;SDS011;23116;47.660;9.126;2024-01-30T11:31:54;5.97;;;5.38;;
34403;SDS011;23116;47.660;9.126;2024-01-30T11:34:23;5.22;;;4.72;;
34403;SDS011;23116;47.660;9.126;2024-01-30T11:37:01;5.38;;;4.90;;
34403;SDS011;23116;47.660;9.126;2024-01-30T11:39:34;4.55;;;4.15;;
34403;SDS011;23116;47.660;9.126;2024-01-30T11:42:02;7.40;;;4.55;;
34403;SDS011;23116;47.660;9.126;2024-01-30T11:44:33;5.18;;;4.70;;
34403;SDS011;23116;47.660;9.126;2024-01-30T11:47:00;5.72;;;4.93;;
34403;SDS011;23116;47.660;9.126;2024-01-30T11:49:28;6.80;;;4.60;;
34403;SDS011;23116;47.660;9.126;2024-01-30T11:51:56;5.60;;;5.00;;
34403;SDS011;23116;47.660;9.126;2024-01-30T11:54:23;6.15;;;4.82;;
34403;SDS011;23116;47.660;9.126;2024-01-30T11:56:50;5.38;;;4.88;;
34403;SDS011;23116;47.660;9.126;2024-01-30T11:59:17;4.63;;;4.03;;
34403;SDS011;23116;47.660;9.126;2024-01-30T12:01:44;5.35;;;4.85;;
34403;SDS011;23116;47.660;9.126;2024-01-30T12:04:12;5.28;;;4.78;;
34403;SDS011;23116;47.660;9.126;2024-01-30T12:06:40;4.65;;;4.25;;
34403;SDS011;23116;47.660;9.126;2024-01-30T12:09:07;5.90;;;5.40;;
34403;SDS011;23116;47.660;9.126;2024-01-30T12:11:46;5.82;;;5.22;;
34403;SDS011;23116;47.660;9.126;2024-01-30T12:14:17;5.97;;;5.38;;
34403;SDS011;23116;47.660;9.126;2024-01-30T12:16:48;5.35;;;4.88;;
34403;SDS011;23116;47.660;9.126;2024-01-30T12:19:22;4.32;;;3.92;;
34403;SDS011;23116;47.660;9.126;2024-01-30T12:21:54;5.53;;;5.03;;
34403;SDS011;23116;47.660;9.126;2024-01-30T12:24:25;6.85;;;5.50;;
34403;SDS011;23116;47.660;9.126;2024-01-30T12:26:58;5.45;;;4.88;;
34403;SDS011;23116;47.660;9.126;2024-01-30T12:29:25;5.95;;;5.35;;
34403;SDS011;23116;47.660;9.126;2024-01-30T12:31:56;6.28;;;5.68;;
34403;SDS011;23116;47.660;9.126;2024-01-30T12:34:24;7.00;;;6.30;;
34403;SDS011;23116;47.660;9.126;2024-01-30T12:36:52;6.72;;;6.13;;
34403;SDS011;23116;47.660;9.126;2024-01-30T12:39:19;6.85;;;6.20;;
34403;SDS011;23116;47.660;9.126;2024-01-30T12:41:47;6.07;;;5.57;;
34403;SDS011;23116;47.660;9.126;2024-01-30T12:44:14;5.72;;;4.97;;
34403;SDS011;23116;47.660;9.126;2024-01-30T12:46:41;6.53;;;5.88;;
34403;SDS011;23116;47.660;9.126;2024-01-30T12:49:08;6.20;;;5.60;;
34403;SDS011;23116;47.660;9.126;2024-01-30T12:51:36;5.70;;;5.20;;
34403;SDS011;23116;47.660;9.126;2024-01-30T12:54:05;5.82;;;5.22;;
34403;SDS011;23116;47.660;9.126;2024-01-30T12:56:32;5.90;;;5.40;;
34403;SDS011;23116;47.660;9.126;2024-01-30T12:59:00;5.85;;;5.35;;
34403;SDS011;23116;47.660;9.126;2024-01-30T13:01:27;5.85;;;5.35;;
34403;SDS011;23116;47.660;9.126;2024-01-30T13:03:54;4.70;;;4.30;;
34403;SDS011;23116;47.660;9.126;2024-01-30T13:06:23;5.63;;;5.13;;
34403;SDS011;23116;47.660;9.126;2024-01-30T13:08:50;7.10;;;6.50;;
34403;SDS011;23116;47.660;9.126;2024-01-30T13:11:18;6.93;;;6.22;;
34403;SDS011;23116;47.660;9.126;2024-01-30T13:13:45;6.28;;;5.68;;
34403;SDS011;23116;47.660;9.126;2024-01-30T13:16:13;5.88;;;5.28;;
34403;SDS011;23116;47.660;9.126;2024-01-30T13:18:40;5.28;;;4.80;;
34403;SDS011;23116;47.660;9.126;2024-01-30T13:21:07;5.63;;;5.13;;
34403;SDS011;23116;47.660;9.126;2024-01-30T13:23:34;4.45;;;4.05;;
34403;SDS011;23116;47.660;9.126;2024-01-30T13:26:01;6.10;;;5.53;;
34403;SDS011;23116;47.660;9.126;2024-01-30T13:28:28;5.68;;;5.18;;
34403;SDS011;23116;47.660;9.126;2024-01-30T13:30:56;5.35;;;4.88;;
34403;SDS011;23116;47.660;9.126;2024-01-30T13:33:23;5.55;;;4.90;;
34403;SDS011;23116;47.660;9.126;2024-01-30T13:35:51;6.10;;;5.00;;
34403;SDS011;23116;47.660;9.126;2024-01-30T13:38:18;6.40;;;5.75;;
34403;SDS011;23116;47.660;9.126;2024-01-30T13:40:45;6.38;;;5.88;;
34403;SDS011;23116;47.660;9.126;2024-01-30T13:43:12;6.53;;;6.03;;
34403;SDS011;23116;47.660;9.126;2024-01-30T13:45:39;5.60;;;5.10;;
34403;SDS011;23116;47.660;9.126;2024-01-30T13:48:07;5.60;;;5.10;;
34403;SDS011;23116;47.660;9.126;2024-01-30T13:50:34;5.18;;;4.68;;
34403;SDS011;23116;47.660;9.126;2024-01-30T13:53:02;4.95;;;4.55;;
34403;SDS011;23116;47.660;9.126;2024-01-30T13:55:29;5.72;;;5.22;;
34403;SDS011;23116;47.660;9.126;2024-01-30T13:57:57;5.25;;;4.75;;
34403;SDS011;23116;47.660;9.126;2024-01-30T14:00:24;6.35;;;5.75;;
34403;SDS011;23116;47.660;9.126;2024-01-30T14:02:51;6.75;;;6.15;;
34403;SDS011;23116;47.660;9.126;2024-01-30T14:05:22;6.07;;;5.55;;
34403;SDS011;23116;47.660;9.126;2024-01-30T14:07:50;6.25;;;5.75;;
34403;SDS011;23116;47.660;9.126;2024-01-30T14:10:18;6.10;;;5.50;;
34403;SDS011;23116;47.660;9.126;2024-01-30T14:12:45;5.63;;;5.13;;
34403;SDS011;23116;47.660;9.126;2024-01-30T14:15:13;6.88;;;5.70;;
34403;SDS011;23116;47.660;9.126;2024-01-30T14:17:43;9.70;;;5.57;;
34403;SDS011;23116;47.660;9.126;2024-01-30T14:20:13;7.90;;;6.60;;
34403;SDS011;23116;47.660;9.126;2024-01-30T14:22:44;7.15;;;6.40;;
34403;SDS011;23116;47.660;9.126;2024-01-30T14:25:11;7.65;;;6.95;;
34403;SDS011;23116;47.660;9.126;2024-01-30T14:27:39;7.75;;;7.00;;
34403;SDS011;23116;47.660;9.126;2024-01-30T14:30:07;9.13;;;7.40;;
34403;SDS011;23116;47.660;9.126;2024-01-30T14:32:37;7.65;;;6.63;;
34403;SDS011;23116;47.660;9.126;2024-01-30T14:35:06;7.78;;;6.82;;
34403;SDS011;23116;47.660;9.126;2024-01-30T14:37:34;8.00;;;7.20;;
34403;SDS011;23116;47.660;9.126;2024-01-30T14:40:02;7.63;;;6.90;;
34403;SDS011;23116;47.660;9.126;2024-01-30T14:42:32;7.22;;;6.25;;
34403;SDS011;23116;47.660;9.126;2024-01-30T14:45:01;7.35;;;6.65;;
34403;SDS011;23116;47.660;9.126;2024-01-30T14:47:30;7.38;;;6.28;;
34403;SDS011;23116;47.660;9.126;2024-01-30T14:49:58;7.47;;;6.60;;
34403;SDS011;23116;47.660;9.126;2024-01-30T14:52:25;8.50;;;7.70;;
34403;SDS011;23116;47.660;9.126;2024-01-30T14:54:52;7.75;;;6.75;;